sensor_id;sensor_type;location;lat;lon;timestamp;pressure;altitude;pressure_sealevel;temperature;humidity
27358;BME280;14831;50.474;7.616;2023-12-20T00:03:23;97870;;;3.1;100.0
27358;BME280;14831;50.474;7.616;2023-12-20T00:08:23;97860;;;3.1;100.0
27358;BME280;14831;50.474;7.616;2023-12-20T00:13:23;97870;;;3.2;100.0
27358;BME280;14831;50.474;7.616;2023-12-20T00:18:23;97870;;;3.2;100.0
27358;BME280;14831;50.474;7.616;2023-12-20T00:23:23;97870;;;3.2;100.0
27358;BME280;14831;50.474;7.616;2023-12-20T00:28:24;97870;;;3.2;100.0
27358;BME280;14831;50.474;7.616;2023-12-20T00:33:23;97850;;;3.2;100.0
27358;BME280;14831;50.474;7.616;2023-12-20T00:38:23;97850;;;3.2;100.0
27358;BME280;14831;50.474;7.616;2023-12-20T00:43:23;97860;;;3.2;100.0
27358;BME280;14831;50.474;7.616;2023-12-20T00:48:23;97860;;;3.2;100.0
27358;BME280;14831;50.474;7.616;2023-12-20T00:53:23;97840;;;3.2;100.0
27358;BME280;14831;50.474;7.616;2023-12-20T00:58:23;97860;;;3.2;100.0
27358;BME280;14831;50.474;7.616;2023-12-20T01:03:23;97850;;;3.2;100.0
27358;BME280;14831;50.474;7.616;2023-12-20T01:08:23;97840;;;3.2;100.0
27358;BME280;14831;50.474;7.616;2023-12-20T01:13:23;97830;;;3.2;100.0
27358;BME280;14831;50.474;7.616;2023-12-20T01:18:23;97840;;;3.3;100.0
27358;BME280;14831;50.474;7.616;2023-12-20T01:23:23;97830;;;3.3;100.0
27358;BME280;14831;50.474;7.616;2023-12-20T01:28:23;97840;;;3.4;100.0
27358;BME280;14831;50.474;7.616;2023-12-20T01:33:23;97840;;;3.4;100.0
27358;BME280;14831;50.474;7.616;2023-12-20T01:38:23;97850;;;3.4;100.0
27358;BME280;14831;50.474;7.616;2023-12-20T01:43:23;97840;;;3.4;100.0
27358;BME280;14831;50.474;7.616;2023-12-20T01:48:23;97840;;;3.4;100.0
27358;BME280;14831;50.474;7.616;2023-12-20T01:53:24;97840;;;3.4;100.0
27358;BME280;14831;50.474;7.616;2023-12-20T01:58:23;97850;;;3.4;100.0
27358;BME280;14831;50.474;7.616;2023-12-20T02:03:23;97850;;;3.4;100.0
27358;BME280;14831;50.474;7.616;2023-12-20T02:08:23;97850;;;3.4;100.0
27358;BME280;14831;50.474;7.616;2023-12-20T02:13:23;97860;;;3.5;100.0
27358;BME280;14831;50.474;7.616;2023-12-20T02:18:23;97870;;;3.5;100.0
27358;BME280;14831;50.474;7.616;2023-12-20T02:23:23;97880;;;3.6;100.0
27358;BME280;14831;50.474;7.616;2023-12-20T02:28:23;97880;;;3.7;100.0
27358;BME280;14831;50.474;7.616;2023-12-20T02:33:23;97880;;;3.7;100.0
27358;BME280;14831;50.474;7.616;2023-12-20T02:38:23;97870;;;3.7;100.0
27358;BME280;14831;50.474;7.616;2023-12-20T02:43:23;97880;;;3.8;100.0
27358;BME280;14831;50.474;7.616;2023-12-20T02:48:23;97870;;;3.8;100.0
27358;BME280;14831;50.474;7.616;2023-12-20T02:53:23;97880;;;3.9;100.0
27358;BME280;14831;50.474;7.616;2023-12-20T02:58:23;97890;;;3.9;100.0
27358;BME280;14831;50.474;7.616;2023-12-20T03:03:23;97890;;;3.9;100.0
27358;BME280;14831;50.474;7.616;2023-12-20T03:08:23;97880;;;3.9;100.0
27358;BME280;14831;50.474;7.616;2023-12-20T03:13:23;97900;;;4.0;100.0
27358;BME280;14831;50.474;7.616;2023-12-20T03:18:23;97920;;;4.0;100.0
27358;BME280;14831;50.474;7.616;2023-12-20T03:23:23;97920;;;3.8;100.0
27358;BME280;14831;50.474;7.616;2023-12-20T03:28:23;97930;;;3.6;100.0
27358;BME280;14831;50.474;7.616;2023-12-20T03:33:23;97920;;;3.5;99.3
27358;BME280;14831;50.474;7.616;2023-12-20T03:38:23;97940;;;3.4;98.9
27358;BME280;14831;50.474;7.616;2023-12-20T03:43:23;97930;;;3.3;99.9
27358;BME280;14831;50.474;7.616;2023-12-20T03:48:23;97950;;;3.3;100.0
27358;BME280;14831;50.474;7.616;2023-12-20T03:53:23;97940;;;3.1;100.0
27358;BME280;14831;50.474;7.616;2023-12-20T03:58:23;97940;;;3.0;100.0
27358;BME280;14831;50.474;7.616;2023-12-20T04:03:23;97950;;;3.1;100.0
27358;BME280;14831;50.474;7.616;2023-12-20T04:08:23;97940;;;3.0;100.0
27358;BME280;14831;50.474;7.616;2023-12-20T04:13:23;97940;;;3.1;100.0
27358;BME280;14831;50.474;7.616;2023-12-20T04:18:23;97940;;;3.0;100.0
27358;BME280;14831;50.474;7.616;2023-12-20T04:23:23;97950;;;3.0;100.0
27358;BME280;14831;50.474;7.616;2023-12-20T04:28:23;97960;;;3.0;100.0
27358;BME280;14831;50.474;7.616;2023-12-20T04:33:23;97960;;;3.0;100.0
27358;BME280;14831;50.474;7.616;2023-12-20T04:38:23;97960;;;3.0;100.0
27358;BME280;14831;50.474;7.616;2023-12-20T04:43:23;97960;;;3.0;100.0
27358;BME280;14831;50.474;7.616;2023-12-20T04:48:23;97950;;;3.0;99.4
27358;BME280;14831;50.474;7.616;2023-12-20T04:53:23;97960;;;3.0;98.9
27358;BME280;14831;50.474;7.616;2023-12-20T04:58:23;97970;;;3.0;98.7
27358;BME280;14831;50.474;7.616;2023-12-20T05:03:23;97970;;;3.0;98.9
27358;BME280;14831;50.474;7.616;2023-12-20T05:08:23;97970;;;3.0;98.9
27358;BME280;14831;50.474;7.616;2023-12-20T05:13:23;97970;;;3.0;99.0
27358;BME280;14831;50.474;7.616;2023-12-20T05:18:23;97970;;;3.0;99.1
27358;BME280;14831;50.474;7.616;2023-12-20T05:23:23;97960;;;3.0;99.1
27358;BME280;14831;50.474;7.616;2023-12-20T05:28:23;97960;;;2.9;99.1
27358;BME280;14831;50.474;7.616;2023-12-20T05:33:23;97950;;;3.0;98.6
27358;BME280;14831;50.474;7.616;2023-12-20T05:38:23;97950;;;2.9;98.7
27358;BME280;14831;50.474;7.616;2023-12-20T05:43:23;97950;;;2.9;98.4
27358;BME280;14831;50.474;7.616;2023-12-20T05:48:23;97960;;;2.9;98.3
27358;BME280;14831;50.474;7.616;2023-12-20T05:53:23;97960;;;2.9;98.4
27358;BME280;14831;50.474;7.616;2023-12-20T05:58:23;97970;;;2.9;98.3
27358;BME280;14831;50.474;7.616;2023-12-20T06:03:23;97980;;;2.8;98.8
27358;BME280;14831;50.474;7.616;2023-12-20T06:08:23;97970;;;2.8;99.2
27358;BME280;14831;50.474;7.616;2023-12-20T06:13:23;97990;;;2.8;99.7
27358;BME280;14831;50.474;7.616;2023-12-20T06:18:23;97980;;;2.7;100.0
27358;BME280;14831;50.474;7.616;2023-12-20T06:23:23;97980;;;2.7;99.7
27358;BME280;14831;50.474;7.616;2023-12-20T06:28:23;97980;;;2.7;99.7
27358;BME280;14831;50.474;7.616;2023-12-20T06:33:23;97980;;;2.7;99.6
27358;BME280;14831;50.474;7.616;2023-12-20T06:38:23;97970;;;2.7;99.7
27358;BME280;14831;50.474;7.616;2023-12-20T06:43:23;97990;;;2.7;99.4
27358;BME280;14831;50.474;7.616;2023-12-20T06:48:23;97980;;;2.8;98.9
27358;BME280;14831;50.474;7.616;2023-12-20T06:53:23;97970;;;2.8;99.2
27358;BME280;14831;50.474;7.616;2023-12-20T06:58:23;97990;;;2.7;99.3
27358;BME280;14831;50.474;7.616;2023-12-20T07:03:23;97990;;;2.7;99.3
27358;BME280;14831;50.474;7.616;2023-12-20T07:08:23;97980;;;2.7;99.3
27358;BME280;14831;50.474;7.616;2023-12-20T07:13:23;97980;;;2.7;99.2
27358;BME280;14831;50.474;7.616;2023-12-20T07:18:23;97980;;;2.7;99.2
27358;BME280;14831;50.474;7.616;2023-12-20T07:23:23;97990;;;2.7;99.7
27358;BME280;14831;50.474;7.616;2023-12-20T07:28:23;98000;;;2.7;99.5
27358;BME280;14831;50.474;7.616;2023-12-20T07:33:23;98010;;;2.7;99.5
27358;BME280;14831;50.474;7.616;2023-12-20T07:38:23;97990;;;2.7;99.4
27358;BME280;14831;50.474;7.616;2023-12-20T07:43:23;98000;;;2.7;99.4
27358;BME280;14831;50.474;7.616;2023-12-20T07:48:23;98000;;;2.7;99.1
27358;BME280;14831;50.474;7.616;2023-12-20T07:53:23;98000;;;2.7;98.7
27358;BME280;14831;50.474;7.616;2023-12-20T07:58:23;98020;;;2.7;98.6
27358;BME280;14831;50.474;7.616;2023-12-20T08:03:23;98010;;;2.7;98.9
27358;BME280;14831;50.474;7.616;2023-12-20T08:08:23;98010;;;2.7;99.1
27358;BME280;14831;50.474;7.616;2023-12-20T08:13:23;98010;;;2.7;98.9
27358;BME280;14831;50.474;7.616;2023-12-20T08:18:23;98020;;;2.8;98.8
27358;BME280;14831;50.474;7.616;2023-12-20T08:23:23;98030;;;2.8;98.8
27358;BME280;14831;50.474;7.616;2023-12-20T08:28:23;98020;;;2.8;98.9
27358;BME280;14831;50.474;7.616;2023-12-20T08:33:23;98020;;;2.8;99.1
27358;BME280;14831;50.474;7.616;2023-12-20T08:38:23;98040;;;2.8;98.6
27358;BME280;14831;50.474;7.616;2023-12-20T08:43:23;98040;;;2.8;98.6
27358;BME280;14831;50.474;7.616;2023-12-20T08:48:23;98040;;;2.8;98.5
27358;BME280;14831;50.474;7.616;2023-12-20T08:53:23;98030;;;2.9;98.1
27358;BME280;14831;50.474;7.616;2023-12-20T08:58:23;98030;;;3.0;97.9
27358;BME280;14831;50.474;7.616;2023-12-20T09:03:23;98010;;;3.0;98.1
27358;BME280;14831;50.474;7.616;2023-12-20T09:08:23;98010;;;3.0;98.3
27358;BME280;14831;50.474;7.616;2023-12-20T09:13:23;98010;;;3.0;98.3
27358;BME280;14831;50.474;7.616;2023-12-20T09:18:23;98010;;;3.0;98.6
27358;BME280;14831;50.474;7.616;2023-12-20T09:23:23;98020;;;3.0;98.8
27358;BME280;14831;50.474;7.616;2023-12-20T09:28:23;98020;;;3.0;98.4
27358;BME280;14831;50.474;7.616;2023-12-20T09:33:23;98020;;;3.1;98.1
27358;BME280;14831;50.474;7.616;2023-12-20T09:38:23;98020;;;3.2;97.9
27358;BME280;14831;50.474;7.616;2023-12-20T09:43:23;98020;;;3.2;97.3
27358;BME280;14831;50.474;7.616;2023-12-20T09:48:23;98020;;;3.3;97.5
27358;BME280;14831;50.474;7.616;2023-12-20T09:53:23;98020;;;3.4;97.6
27358;BME280;14831;50.474;7.616;2023-12-20T09:58:23;98020;;;3.4;96.7
27358;BME280;14831;50.474;7.616;2023-12-20T10:03:24;98020;;;3.5;95.9
27358;BME280;14831;50.474;7.616;2023-12-20T10:08:24;98010;;;3.6;95.3
27358;BME280;14831;50.474;7.616;2023-12-20T10:13:23;98000;;;3.7;94.7
27358;BME280;14831;50.474;7.616;2023-12-20T10:18:23;98000;;;3.8;94.6
27358;BME280;14831;50.474;7.616;2023-12-20T10:23:23;97990;;;3.8;93.8
27358;BME280;14831;50.474;7.616;2023-12-20T10:28:23;97990;;;3.8;93.6
27358;BME280;14831;50.474;7.616;2023-12-20T10:33:24;97980;;;3.9;93.2
27358;BME280;14831;50.474;7.616;2023-12-20T10:38:23;97980;;;3.9;92.6
27358;BME280;14831;50.474;7.616;2023-12-20T10:43:23;97960;;;4.0;91.1
27358;BME280;14831;50.474;7.616;2023-12-20T10:48:23;97960;;;4.0;91.1
27358;BME280;14831;50.474;7.616;2023-12-20T10:53:23;97960;;;4.0;90.2
27358;BME280;14831;50.474;7.616;2023-12-20T10:58:23;97970;;;4.1;88.9
27358;BME280;14831;50.474;7.616;2023-12-20T11:03:23;97970;;;4.1;89.7
27358;BME280;14831;50.474;7.616;2023-12-20T11:08:36;97960;;;4.1;89.0
27358;BME280;14831;50.474;7.616;2023-12-20T11:13:26;97960;;;4.1;89.2
27358;BME280;14831;50.474;7.616;2023-12-20T11:18:28;97960;;;4.1;89.0
27358;BME280;14831;50.474;7.616;2023-12-20T11:23:23;97950;;;4.1;89.0
27358;BME280;14831;50.474;7.616;2023-12-20T11:28:24;97950;;;4.1;89.5
27358;BME280;14831;50.474;7.616;2023-12-20T11:33:24;97940;;;4.1;89.3
27358;BME280;14831;50.474;7.616;2023-12-20T11:38:23;97950;;;4.1;89.1
27358;BME280;14831;50.474;7.616;2023-12-20T11:43:31;97940;;;4.1;89.9
27358;BME280;14831;50.474;7.616;2023-12-20T11:48:23;97930;;;4.1;89.1
27358;BME280;14831;50.474;7.616;2023-12-20T11:53:23;97930;;;4.1;89.8
27358;BME280;14831;50.474;7.616;2023-12-20T11:58:23;97930;;;4.1;90.6
27358;BME280;14831;50.474;7.616;2023-12-20T12:03:23;97950;;;4.1;90.4
27358;BME280;14831;50.474;7.616;2023-12-20T12:08:23;97950;;;4.1;90.8
27358;BME280;14831;50.474;7.616;2023-12-20T12:13:23;97930;;;4.1;90.7
27358;BME280;14831;50.474;7.616;2023-12-20T12:18:23;97920;;;4.1;90.5
27358;BME280;14831;50.474;7.616;2023-12-20T12:23:23;97920;;;4.1;91.4
27358;BME280;14831;50.474;7.616;2023-12-20T12:28:25;97920;;;4.2;91.0
27358;BME280;14831;50.474;7.616;2023-12-20T12:33:24;97920;;;4.2;90.7
27358;BME280;14831;50.474;7.616;2023-12-20T12:38:23;97910;;;4.2;91.2
27358;BME280;14831;50.474;7.616;2023-12-20T12:43:23;97910;;;4.2;91.8
27358;BME280;14831;50.474;7.616;2023-12-20T12:48:23;97910;;;4.2;92.2
27358;BME280;14831;50.474;7.616;2023-12-20T12:53:23;97900;;;4.2;91.3
27358;BME280;14831;50.474;7.616;2023-12-20T12:58:23;97890;;;4.2;91.5
27358;BME280;14831;50.474;7.616;2023-12-20T13:03:23;97880;;;4.2;92.1
27358;BME280;14831;50.474;7.616;2023-12-20T13:08:23;97880;;;4.2;92.6
27358;BME280;14831;50.474;7.616;2023-12-20T13:13:23;97880;;;4.2;93.7
27358;BME280;14831;50.474;7.616;2023-12-20T13:18:23;97870;;;4.2;94.0
27358;BME280;14831;50.474;7.616;2023-12-20T13:23:23;97850;;;4.2;93.6
27358;BME280;14831;50.474;7.616;2023-12-20T13:28:23;97840;;;4.3;94.1
27358;BME280;14831;50.474;7.616;2023-12-20T13:33:23;97840;;;4.4;93.6
27358;BME280;14831;50.474;7.616;2023-12-20T13:38:23;97850;;;4.4;92.9
27358;BME280;14831;50.474;7.616;2023-12-20T13:43:23;97850;;;4.4;92.8
27358;BME280;14831;50.474;7.616;2023-12-20T13:48:23;97830;;;4.4;92.4
27358;BME280;14831;50.474;7.616;2023-12-20T13:53:23;97820;;;4.4;92.2
27358;BME280;14831;50.474;7.616;2023-12-20T13:58:23;97810;;;4.4;92.2
27358;BME280;14831;50.474;7.616;2023-12-20T14:03:23;97810;;;4.4;91.8
27358;BME280;14831;50.474;7.616;2023-12-20T14:08:23;97800;;;4.5;91.5
27358;BME280;14831;50.474;7.616;2023-12-20T14:13:23;97790;;;4.5;91.0
27358;BME280;14831;50.474;7.616;2023-12-20T14:18:23;97790;;;4.5;91.0
27358;BME280;14831;50.474;7.616;2023-12-20T14:23:23;97800;;;4.5;90.7
27358;BME280;14831;50.474;7.616;2023-12-20T14:28:24;97810;;;4.5;91.3
27358;BME280;14831;50.474;7.616;2023-12-20T14:33:23;97790;;;4.5;91.4
27358;BME280;14831;50.474;7.616;2023-12-20T14:38:23;97780;;;4.4;91.8
27358;BME280;14831;50.474;7.616;2023-12-20T14:43:23;97780;;;4.5;91.4
27358;BME280;14831;50.474;7.616;2023-12-20T14:48:23;97780;;;4.5;90.7
27358;BME280;14831;50.474;7.616;2023-12-20T14:53:23;97780;;;4.5;91.2
27358;BME280;14831;50.474;7.616;2023-12-20T14:58:23;97800;;;4.4;91.2
27358;BME280;14831;50.474;7.616;2023-12-20T15:03:23;97790;;;4.4;91.6
27358;BME280;14831;50.474;7.616;2023-12-20T15:08:23;97790;;;4.4;91.5
27358;BME280;14831;50.474;7.616;2023-12-20T15:13:23;97790;;;4.4;91.6
27358;BME280;14831;50.474;7.616;2023-12-20T15:18:23;97790;;;4.3;92.3
27358;BME280;14831;50.474;7.616;2023-12-20T15:23:23;97790;;;4.3;92.1
27358;BME280;14831;50.474;7.616;2023-12-20T15:28:23;97790;;;4.3;92.3
27358;BME280;14831;50.474;7.616;2023-12-20T15:33:23;97800;;;4.3;92.6
27358;BME280;14831;50.474;7.616;2023-12-20T15:38:23;97790;;;4.3;92.3
27358;BME280;14831;50.474;7.616;2023-12-20T15:43:23;97780;;;4.3;92.3
27358;BME280;14831;50.474;7.616;2023-12-20T15:48:23;97780;;;4.3;92.2
27358;BME280;14831;50.474;7.616;2023-12-20T15:53:23;97780;;;4.4;91.7
27358;BME280;14831;50.474;7.616;2023-12-20T15:58:23;97790;;;4.4;92.2
27358;BME280;14831;50.474;7.616;2023-12-20T16:03:23;97790;;;4.4;92.0
27358;BME280;14831;50.474;7.616;2023-12-20T16:08:23;97780;;;4.4;91.7
27358;BME280;14831;50.474;7.616;2023-12-20T16:13:23;97780;;;4.4;91.4
27358;BME280;14831;50.474;7.616;2023-12-20T16:18:23;97780;;;4.4;91.9
27358;BME280;14831;50.474;7.616;2023-12-20T16:23:23;97770;;;4.4;92.0
27358;BME280;14831;50.474;7.616;2023-12-20T16:28:23;97790;;;4.4;92.3
27358;BME280;14831;50.474;7.616;2023-12-20T16:33:23;97770;;;4.3;92.8
27358;BME280;14831;50.474;7.616;2023-12-20T16:38:23;97770;;;4.3;93.1
27358;BME280;14831;50.474;7.616;2023-12-20T16:43:23;97760;;;4.2;93.5
27358;BME280;14831;50.474;7.616;2023-12-20T16:48:23;97770;;;4.2;93.9
27358;BME280;14831;50.474;7.616;2023-12-20T16:53:23;97760;;;4.2;94.1
27358;BME280;14831;50.474;7.616;2023-12-20T16:58:23;97750;;;4.2;94.7
27358;BME280;14831;50.474;7.616;2023-12-20T17:03:23;97750;;;4.1;95.4
27358;BME280;14831;50.474;7.616;2023-12-20T17:08:23;97760;;;4.1;96.0
27358;BME280;14831;50.474;7.616;2023-12-20T17:13:23;97770;;;4.1;96.4
27358;BME280;14831;50.474;7.616;2023-12-20T17:18:23;97770;;;4.1;96.8
27358;BME280;14831;50.474;7.616;2023-12-20T17:23:23;97770;;;4.1;97.2
27358;BME280;14831;50.474;7.616;2023-12-20T17:28:23;97770;;;4.0;98.3
27358;BME280;14831;50.474;7.616;2023-12-20T17:33:23;97770;;;3.9;99.1
27358;BME280;14831;50.474;7.616;2023-12-20T17:38:23;97760;;;3.9;99.2
27358;BME280;14831;50.474;7.616;2023-12-20T17:43:23;97750;;;3.9;99.5
27358;BME280;14831;50.474;7.616;2023-12-20T17:48:23;97760;;;3.9;99.4
27358;BME280;14831;50.474;7.616;2023-12-20T17:53:23;97760;;;3.9;99.7
27358;BME280;14831;50.474;7.616;2023-12-20T17:58:23;97760;;;3.9;100.0
27358;BME280;14831;50.474;7.616;2023-12-20T18:03:23;97750;;;3.9;100.0
27358;BME280;14831;50.474;7.616;2023-12-20T18:08:23;97740;;;3.8;100.0
27358;BME280;14831;50.474;7.616;2023-12-20T18:13:23;97730;;;3.8;100.0
27358;BME280;14831;50.474;7.616;2023-12-20T18:18:23;97740;;;3.8;100.0
27358;BME280;14831;50.474;7.616;2023-12-20T18:23:23;97730;;;3.8;100.0
27358;BME280;14831;50.474;7.616;2023-12-20T18:28:23;97720;;;3.8;100.0
27358;BME280;14831;50.474;7.616;2023-12-20T18:33:23;97730;;;3.8;100.0
27358;BME280;14831;50.474;7.616;2023-12-20T18:38:23;97710;;;3.8;100.0
27358;BME280;14831;50.474;7.616;2023-12-20T18:43:23;97720;;;3.8;100.0
27358;BME280;14831;50.474;7.616;2023-12-20T18:48:23;97710;;;3.8;100.0
27358;BME280;14831;50.474;7.616;2023-12-20T18:53:23;97710;;;3.9;100.0
27358;BME280;14831;50.474;7.616;2023-12-20T18:58:23;97720;;;3.9;100.0
27358;BME280;14831;50.474;7.616;2023-12-20T19:03:23;97690;;;3.9;100.0
27358;BME280;14831;50.474;7.616;2023-12-20T19:08:23;97690;;;4.0;100.0
27358;BME280;14831;50.474;7.616;2023-12-20T19:13:23;97680;;;4.0;100.0
27358;BME280;14831;50.474;7.616;2023-12-20T19:18:23;97660;;;4.0;100.0
27358;BME280;14831;50.474;7.616;2023-12-20T19:23:23;97660;;;4.1;100.0
27358;BME280;14831;50.474;7.616;2023-12-20T19:28:23;97640;;;4.1;100.0
27358;BME280;14831;50.474;7.616;2023-12-20T19:33:23;97650;;;4.1;100.0
27358;BME280;14831;50.474;7.616;2023-12-20T19:38:23;97650;;;4.1;100.0
27358;BME280;14831;50.474;7.616;2023-12-20T19:43:23;97640;;;4.2;100.0
27358;BME280;14831;50.474;7.616;2023-12-20T19:48:23;97650;;;4.2;100.0
27358;BME280;14831;50.474;7.616;2023-12-20T19:53:23;97640;;;4.2;100.0
27358;BME280;14831;50.474;7.616;2023-12-20T19:58:23;97640;;;4.2;100.0
27358;BME280;14831;50.474;7.616;2023-12-20T20:03:23;97630;;;4.2;100.0
27358;BME280;14831;50.474;7.616;2023-12-20T20:08:23;97620;;;4.2;100.0
27358;BME280;14831;50.474;7.616;2023-12-20T20:13:23;97610;;;4.2;100.0
27358;BME280;14831;50.474;7.616;2023-12-20T20:18:23;97590;;;4.2;100.0
27358;BME280;14831;50.474;7.616;2023-12-20T20:23:23;97590;;;4.2;100.0
27358;BME280;14831;50.474;7.616;2023-12-20T20:28:23;97580;;;4.3;100.0
27358;BME280;14831;50.474;7.616;2023-12-20T20:33:24;97560;;;4.3;100.0
27358;BME280;14831;50.474;7.616;2023-12-20T20:38:23;97570;;;4.3;100.0
27358;BME280;14831;50.474;7.616;2023-12-20T20:43:23;97550;;;4.2;100.0
27358;BME280;14831;50.474;7.616;2023-12-20T20:48:23;97550;;;4.2;100.0
27358;BME280;14831;50.474;7.616;2023-12-20T20:53:24;97540;;;4.3;100.0
27358;BME280;14831;50.474;7.616;2023-12-20T20:58:23;97540;;;4.3;100.0
27358;BME280;14831;50.474;7.616;2023-12-20T21:03:23;97520;;;4.3;100.0
27358;BME280;14831;50.474;7.616;2023-12-20T21:08:23;97520;;;4.4;100.0
27358;BME280;14831;50.474;7.616;2023-12-20T21:13:23;97520;;;4.4;100.0
27358;BME280;14831;50.474;7.616;2023-12-20T21:18:23;97510;;;4.5;100.0
27358;BME280;14831;50.474;7.616;2023-12-20T21:23:23;97510;;;4.4;100.0
27358;BME280;14831;50.474;7.616;2023-12-20T21:28:23;97500;;;4.5;100.0
27358;BME280;14831;50.474;7.616;2023-12-20T21:33:23;97500;;;4.6;100.0
27358;BME280;14831;50.474;7.616;2023-12-20T21:38:23;97490;;;4.6;100.0
27358;BME280;14831;50.474;7.616;2023-12-20T21:43:23;97470;;;4.7;100.0
27358;BME280;14831;50.474;7.616;2023-12-20T21:48:23;97460;;;4.7;100.0
27358;BME280;14831;50.474;7.616;2023-12-20T21:53:23;97460;;;4.8;99.6
27358;BME280;14831;50.474;7.616;2023-12-20T21:58:23;97460;;;4.8;99.5
27358;BME280;14831;50.474;7.616;2023-12-20T22:03:23;97450;;;4.8;99.1
27358;BME280;14831;50.474;7.616;2023-12-20T22:08:23;97440;;;4.9;98.4
27358;BME280;14831;50.474;7.616;2023-12-20T22:13:23;97460;;;4.9;98.7
27358;BME280;14831;50.474;7.616;2023-12-20T22:18:23;97450;;;4.9;98.7
27358;BME280;14831;50.474;7.616;2023-12-20T22:23:23;97440;;;4.9;98.7
27358;BME280;14831;50.474;7.616;2023-12-20T22:28:23;97430;;;4.9;98.6
27358;BME280;14831;50.474;7.616;2023-12-20T22:33:23;97430;;;5.0;98.4
27358;BME280;14831;50.474;7.616;2023-12-20T22:38:23;97430;;;4.9;99.1
27358;BME280;14831;50.474;7.616;2023-12-20T22:43:23;97440;;;4.9;100.0
27358;BME280;14831;50.474;7.616;2023-12-20T22:48:23;97430;;;4.8;100.0
27358;BME280;14831;50.474;7.616;2023-12-20T22:53:23;97410;;;4.8;100.0
27358;BME280;14831;50.474;7.616;2023-12-20T22:58:24;97400;;;4.7;100.0
27358;BME280;14831;50.474;7.616;2023-12-20T23:03:23;97410;;;4.7;100.0
27358;BME280;14831;50.474;7.616;2023-12-20T23:08:23;97400;;;4.7;100.0
27358;BME280;14831;50.474;7.616;2023-12-20T23:13:23;97400;;;4.7;100.0
27358;BME280;14831;50.474;7.616;2023-12-20T23:18:23;97400;;;4.7;100.0
27358;BME280;14831;50.474;7.616;2023-12-20T23:23:23;97400;;;4.7;100.0
27358;BME280;14831;50.474;7.616;2023-12-20T23:28:23;97390;;;4.7;100.0
27358;BME280;14831;50.474;7.616;2023-12-20T23:33:23;97390;;;4.7;100.0
27358;BME280;14831;50.474;7.616;2023-12-20T23:38:23;97380;;;4.8;100.0
27358;BME280;14831;50.474;7.616;2023-12-20T23:43:23;97370;;;4.7;100.0
27358;BME280;14831;50.474;7.616;2023-12-20T23:48:23;97360;;;4.7;100.0
27358;BME280;14831;50.474;7.616;2023-12-20T23:53:23;97340;;;4.7;100.0
27358;BME280;14831;50.474;7.616;2023-12-20T23:58:23;97340;;;4.7;100.0
